createdAt,value
2019-02-02T00:03:34.116Z,95881.44
2019-02-02T00:08:35.645Z,95864.77
2019-02-02T00:13:37.433Z,95868.38
2019-02-02T00:18:38.869Z,95874.36
2019-02-02T00:23:40.297Z,95846.54
2019-02-02T00:28:41.726Z,95864.07
2019-02-02T00:33:43.157Z,95862.07
2019-02-02T00:38:44.585Z,95857.09
2019-02-02T00:43:46.186Z,95886.20
2019-02-02T00:48:47.619Z,95872.65
2019-02-02T00:53:49.048Z,95875.58
2019-02-02T00:58:50.809Z,95857.02
2019-02-02T01:03:52.281Z,95877.77
2019-02-02T01:08:54.119Z,95888.02
2019-02-02T01:13:55.748Z,95886.53
2019-02-02T01:18:57.269Z,95883.23
2019-02-02T01:23:59.297Z,95886.90
2019-02-02T01:29:00.833Z,95871.66
2019-02-02T01:34:03.373Z,95844.02
2019-02-02T01:39:06.205Z,95856.06
2019-02-02T01:44:09.708Z,95841.13
2019-02-02T01:49:11.734Z,95841.14
2019-02-02T01:54:13.168Z,95856.79
2019-02-02T01:59:14.600Z,95847.00
2019-02-02T02:04:16.078Z,95873.97
2019-02-02T02:09:18.709Z,95877.52
2019-02-02T02:14:20.176Z,95862.02
2019-02-02T02:19:21.637Z,95838.13
2019-02-02T02:24:23.071Z,95826.97
2019-02-02T02:29:25.367Z,95832.23
2019-02-02T02:34:26.929Z,95845.31
2019-02-02T02:39:28.357Z,95876.12
2019-02-02T02:44:29.899Z,95855.06
2019-02-02T02:49:31.385Z,95857.38
2019-02-02T02:54:32.821Z,95845.68
2019-02-02T02:59:34.259Z,95840.08
2019-02-02T03:04:35.731Z,95847.52
2019-02-02T03:09:37.261Z,95848.27
2019-02-02T03:14:38.816Z,95839.02
2019-02-02T03:19:40.308Z,95848.27
2019-02-02T03:24:41.860Z,95823.30
2019-02-02T03:29:43.270Z,95829.09
2019-02-02T03:34:44.699Z,95843.67
2019-02-02T03:39:46.133Z,95861.92
2019-02-02T03:44:47.565Z,95843.75
2019-02-02T03:49:49.061Z,95848.41
2019-02-02T03:54:50.521Z,95831.86
2019-02-02T03:59:52.284Z,95832.00
2019-02-02T04:04:54.164Z,95805.98
2019-02-02T04:09:55.597Z,95820.88
2019-02-02T04:14:57.177Z,95818.59
2019-02-02T04:19:58.621Z,95799.93
2019-02-02T04:25:00.145Z,95802.58
2019-02-02T04:30:05.213Z,95807.34
2019-02-02T04:35:09.357Z,95816.31
2019-02-02T04:40:13.797Z,95824.28
2019-02-02T04:45:16.625Z,95812.81
2019-02-02T04:50:20.052Z,95789.11
2019-02-02T04:55:21.564Z,95789.45
2019-02-02T05:00:25.583Z,95810.70
2019-02-02T05:05:27.153Z,95802.55
2019-02-02T05:10:28.618Z,95806.59
2019-02-02T05:15:30.062Z,95773.09
2019-02-02T05:20:31.489Z,95768.03
2019-02-02T05:25:32.954Z,95778.13
2019-02-02T05:30:34.373Z,95760.25
2019-02-02T05:35:35.805Z,95799.13
2019-02-02T05:40:37.353Z,95794.18
2019-02-02T05:45:38.782Z,95799.51
2019-02-02T05:50:40.219Z,95816.11
2019-02-02T05:55:41.730Z,95791.42
2019-02-02T06:00:48.722Z,95790.66
2019-02-02T06:05:51.293Z,95806.25
2019-02-02T06:10:52.869Z,95814.16
2019-02-02T06:15:54.512Z,95826.45
2019-02-02T06:20:55.948Z,95839.72
2019-02-02T06:25:58.557Z,95826.93
2019-02-02T06:31:00.344Z,95851.55
2019-02-02T06:36:03.615Z,95838.64
2019-02-02T06:41:05.195Z,95854.20
2019-02-02T06:46:06.605Z,95840.11
2019-02-02T06:51:08.084Z,95864.92
2019-02-02T06:56:09.732Z,95857.70
2019-02-02T07:01:11.343Z,95846.34
2019-02-02T07:06:12.807Z,95849.70
2019-02-02T07:11:18.797Z,95858.92
2019-02-02T07:16:20.881Z,95864.69
2019-02-02T07:21:23.309Z,95861.25
2019-02-02T07:26:24.914Z,95867.73
2019-02-02T07:31:26.349Z,95863.15
2019-02-02T07:36:27.897Z,95867.40
2019-02-02T07:41:29.304Z,95876.30
2019-02-02T07:46:30.729Z,95871.43
2019-02-02T07:51:32.165Z,95905.61
2019-02-02T07:56:33.612Z,95885.22
2019-02-02T08:01:35.037Z,95924.72
2019-02-02T08:06:36.570Z,95928.03
2019-02-02T08:11:38.109Z,95908.16
2019-02-02T08:16:39.658Z,95908.81
2019-02-02T08:21:41.200Z,95908.60
2019-02-02T08:26:42.691Z,95924.70
2019-02-02T08:31:45.233Z,95923.55
2019-02-02T08:36:47.052Z,95928.72
2019-02-02T08:41:50.783Z,95935.84
2019-02-02T08:46:51.934Z,95941.55
2019-02-02T08:51:54.478Z,95926.34
2019-02-02T08:56:55.969Z,95937.63
2019-02-02T09:01:57.647Z,95955.88
2019-02-02T09:06:59.119Z,95970.45
2019-02-02T09:12:00.652Z,95977.61
2019-02-02T09:17:02.181Z,95983.53
2019-02-02T09:22:03.859Z,95981.30
2019-02-02T09:27:05.343Z,95994.70
2019-02-02T09:32:06.778Z,95984.59
2019-02-02T09:37:08.249Z,96001.82
2019-02-02T09:42:09.671Z,96006.95
2019-02-02T09:47:11.119Z,96012.72
2019-02-02T09:52:12.611Z,96008.70
2019-02-02T09:57:14.041Z,96013.31
2019-02-02T10:02:15.521Z,96015.27
2019-02-02T10:07:16.947Z,96007.20
2019-02-02T10:12:20.950Z,96008.45
2019-02-02T10:17:21.911Z,96012.39
2019-02-02T10:22:24.456Z,96018.64
2019-02-02T10:27:25.934Z,96015.11
2019-02-02T10:32:27.444Z,96001.30
2019-02-02T10:37:28.932Z,95993.94
2019-02-02T10:42:30.371Z,96012.06
2019-02-02T10:47:31.797Z,96019.53
2019-02-02T10:52:34.248Z,96018.34
2019-02-02T10:57:35.694Z,96022.25
2019-02-02T11:02:37.386Z,96022.61
2019-02-02T11:07:39.063Z,96021.59
2019-02-02T11:12:40.640Z,96017.73
2019-02-02T11:17:42.173Z,96018.78
2019-02-02T11:22:43.878Z,96018.91
2019-02-02T11:27:45.586Z,96009.03
2019-02-02T11:32:47.378Z,96001.88
2019-02-02T11:37:48.910Z,95997.85
2019-02-02T11:42:50.860Z,95983.86
2019-02-02T11:47:52.343Z,95988.66
2019-02-02T11:52:53.979Z,95976.98
2019-02-02T11:57:55.864Z,95985.92
2019-02-02T12:02:57.479Z,95994.45
2019-02-02T12:07:58.925Z,96009.91
2019-02-02T12:13:00.452Z,95995.12
2019-02-02T12:18:02.369Z,95955.89
2019-02-02T12:23:04.418Z,95934.12
2019-02-02T12:28:08.976Z,95929.75
2019-02-02T12:33:09.912Z,95926.92
2019-02-02T12:38:11.354Z,95943.84
2019-02-02T12:43:12.835Z,95962.36
2019-02-02T12:53:49.431Z,95989.16
2019-02-02T12:58:50.970Z,95991.55
2019-02-02T13:04:01.148Z,95973.52
2019-02-02T13:08:56.109Z,95941.94
2019-02-02T13:13:57.582Z,95951.13
2019-02-02T13:19:01.748Z,95942.05
2019-02-02T13:24:03.867Z,95939.56
2019-02-02T13:29:05.438Z,95942.95
2019-02-02T13:34:06.878Z,95957.71
2019-02-02T13:39:09.166Z,95950.16
2019-02-02T13:44:10.798Z,95946.86
2019-02-02T13:49:12.256Z,95966.69
2019-02-02T13:54:13.782Z,95980.13
2019-02-02T13:59:15.318Z,95971.44
2019-02-02T14:04:16.885Z,95974.88
2019-02-02T14:09:18.415Z,95970.91
2019-02-02T14:14:20.556Z,95953.14
2019-02-02T14:19:22.005Z,95969.11
2019-02-02T14:24:23.651Z,95967.70
2019-02-02T14:29:25.099Z,95978.16
2019-02-02T14:34:26.635Z,95969.36
2019-02-02T14:39:28.112Z,95979.30
2019-02-02T14:44:30.059Z,95978.01
2019-02-02T14:49:31.592Z,95992.02
2019-02-02T14:54:33.339Z,95981.66
2019-02-02T14:59:34.813Z,95979.34
2019-02-02T15:04:36.422Z,95977.39
2019-02-02T15:09:37.959Z,96010.55
2019-02-02T15:14:39.435Z,96008.79
2019-02-02T15:19:40.892Z,96012.15
2019-02-02T15:24:42.327Z,96008.25
2019-02-02T15:29:44.635Z,96005.16
2019-02-02T15:34:46.080Z,96002.09
2019-02-02T15:39:47.549Z,96001.06
2019-02-02T15:44:49.141Z,95980.36
2019-02-02T15:49:50.633Z,95961.31
2019-02-02T15:54:52.072Z,95969.17
2019-02-02T15:59:53.859Z,95993.42
2019-02-02T16:04:55.319Z,95996.11
2019-02-02T16:09:56.839Z,95998.17
2019-02-02T16:14:58.353Z,96012.02
2019-02-02T16:19:59.810Z,96012.47
2019-02-02T16:25:01.368Z,96033.94
2019-02-02T16:30:11.498Z,96060.54
2019-02-02T16:35:13.455Z,96043.99
2019-02-02T16:40:20.741Z,96056.34
2019-02-02T16:45:29.604Z,96071.70
2019-02-02T16:50:31.148Z,96089.16
2019-02-02T16:55:33.504Z,96103.77
2019-02-02T17:00:35.190Z,96115.95
2019-02-02T17:05:37.029Z,96133.41
2019-02-02T17:10:38.767Z,96130.81
2019-02-02T17:15:40.382Z,96128.66
2019-02-02T17:20:42.149Z,96123.88
2019-02-02T17:25:43.818Z,96136.30
2019-02-02T17:30:45.502Z,96152.22
2019-02-02T17:35:48.147Z,96161.63
2019-02-02T17:40:49.609Z,96156.64
2019-02-02T17:45:51.098Z,96157.31
2019-02-02T17:50:52.641Z,96175.23
2019-02-02T17:55:54.143Z,96174.94
2019-02-02T18:00:56.610Z,96188.17
2019-02-02T18:05:58.048Z,96198.16
2019-02-02T18:10:59.590Z,96194.35
2019-02-02T18:16:01.042Z,96189.72
2019-02-02T18:21:03.410Z,96192.90
2019-02-02T18:26:05.498Z,96213.81
2019-02-02T18:31:07.210Z,96227.39
2019-02-02T18:36:08.808Z,96222.62
2019-02-02T18:41:10.302Z,96226.45
2019-02-02T18:46:11.801Z,96247.33
2019-02-02T18:51:13.307Z,96270.16
2019-02-02T18:56:20.936Z,96265.70
2019-02-02T19:01:22.372Z,96272.43
2019-02-02T19:06:23.898Z,96265.80
2019-02-02T19:11:25.347Z,96278.43
2019-02-02T19:16:26.850Z,96281.07
2019-02-02T19:21:31.190Z,96294.30
2019-02-02T19:26:32.618Z,96307.66
2019-02-02T19:31:34.105Z,96295.89
2019-02-02T19:36:35.588Z,96297.21
2019-02-02T19:41:37.282Z,96308.33
2019-02-02T19:46:38.793Z,96319.73
2019-02-02T19:51:40.425Z,96323.17
2019-02-02T19:56:44.525Z,96323.64
2019-02-02T20:01:45.463Z,96332.20
2019-02-02T20:06:47.102Z,96345.09
2019-02-02T20:11:48.821Z,96344.20
2019-02-02T20:16:50.405Z,96344.03
2019-02-02T20:21:52.060Z,96350.49
2019-02-02T20:26:53.571Z,96360.30
2019-02-02T20:31:55.075Z,96358.67
2019-02-02T20:36:56.746Z,96360.55
2019-02-02T20:41:59.966Z,96365.05
2019-02-02T20:47:03.149Z,96378.48
2019-02-02T20:52:05.037Z,96381.23
2019-02-02T20:57:06.494Z,96376.60
2019-02-02T21:02:08.130Z,96381.88
2019-02-02T21:07:10.118Z,96384.50
2019-02-02T21:12:11.939Z,96392.61
2019-02-02T21:17:13.478Z,96392.70
2019-02-02T21:22:15.113Z,96390.61
2019-02-02T21:27:16.709Z,96393.67
2019-02-02T21:32:18.239Z,96389.16
2019-02-02T21:37:19.681Z,96383.77
2019-02-02T21:42:21.324Z,96383.74
2019-02-02T21:47:22.870Z,96390.23
2019-02-02T21:52:24.375Z,96399.05
2019-02-02T21:57:25.808Z,96407.56
2019-02-02T22:02:27.247Z,96402.15
2019-02-02T22:07:29.391Z,96416.17
2019-02-02T22:12:31.239Z,96405.42
2019-02-02T22:17:32.695Z,96407.12
2019-02-02T22:22:34.492Z,96407.69
2019-02-02T22:27:36.026Z,96413.97
2019-02-02T22:32:37.490Z,96424.55
2019-02-02T22:37:39.124Z,96416.33
2019-02-02T22:42:41.310Z,96416.36
2019-02-02T22:47:42.955Z,96422.03
2019-02-02T22:52:44.738Z,96441.72
2019-02-02T22:57:46.881Z,96442.66
2019-02-02T23:02:49.578Z,96440.61
2019-02-02T23:07:57.018Z,96442.91
2019-02-02T23:13:10.313Z,96441.89
2019-02-02T23:18:11.851Z,96445.74
2019-02-02T23:23:13.499Z,96448.63
2019-02-02T23:28:15.311Z,96467.84
2019-02-02T23:33:16.751Z,96459.55
2019-02-02T23:38:18.290Z,96454.45
2019-02-02T23:43:19.723Z,96456.17
2019-02-02T23:48:21.164Z,96458.98
2019-02-02T23:53:22.697Z,96451.23
2019-02-02T23:58:24.297Z,96464.14
